createdAt,value
2022-11-14T00:00:50.905Z,0.00
2022-11-14T00:01:50.888Z,0.00
2022-11-14T00:02:51.128Z,0.00
2022-11-14T00:03:50.860Z,0.00
2022-11-14T00:04:50.849Z,0.00
2022-11-14T00:05:50.844Z,0.00
2022-11-14T00:06:50.928Z,0.00
2022-11-14T00:07:50.818Z,0.00
2022-11-14T00:08:50.802Z,0.00
2022-11-14T00:09:50.788Z,0.00
2022-11-14T00:10:50.779Z,0.00
2022-11-14T00:11:50.766Z,0.00
2022-11-14T00:12:50.753Z,0.00
2022-11-14T00:13:50.744Z,0.00
2022-11-14T00:14:50.728Z,0.00
2022-11-14T00:15:50.727Z,0.00
2022-11-14T00:16:50.706Z,0.00
2022-11-14T00:17:50.703Z,0.00
2022-11-14T00:18:50.805Z,0.00
2022-11-14T00:19:50.691Z,0.00
2022-11-14T00:20:50.671Z,0.00
2022-11-14T00:21:50.649Z,0.00
2022-11-14T00:22:50.645Z,0.00
2022-11-14T00:23:50.629Z,0.00
2022-11-14T00:24:50.626Z,0.00
2022-11-14T00:25:50.604Z,0.00
2022-11-14T00:26:50.597Z,0.00
2022-11-14T00:27:50.587Z,0.00
2022-11-14T00:28:50.568Z,0.00
2022-11-14T00:29:50.560Z,0.00
2022-11-14T00:30:52.545Z,0.00
2022-11-14T00:31:50.538Z,0.00
2022-11-14T00:32:50.528Z,0.00
2022-11-14T00:33:50.512Z,0.00
2022-11-14T00:34:50.626Z,0.00
2022-11-14T00:35:50.489Z,0.00
2022-11-14T00:36:50.484Z,0.00
2022-11-14T00:37:50.466Z,0.00
2022-11-14T00:38:50.452Z,0.00
2022-11-14T00:39:50.443Z,0.00
2022-11-14T00:40:50.438Z,0.00
2022-11-14T00:41:50.418Z,0.00
2022-11-14T00:42:50.409Z,0.00
2022-11-14T00:43:50.399Z,0.00
2022-11-14T00:44:50.383Z,0.00
2022-11-14T00:45:50.377Z,0.00
2022-11-14T00:46:50.357Z,0.00
2022-11-14T00:47:50.346Z,0.00
2022-11-14T00:48:50.341Z,0.00
2022-11-14T00:49:50.325Z,0.00
2022-11-14T00:50:50.433Z,0.00
2022-11-14T00:51:50.301Z,0.00
2022-11-14T00:52:50.288Z,0.00
2022-11-14T00:53:50.276Z,0.00
2022-11-14T00:54:50.266Z,0.00
2022-11-14T00:55:50.258Z,0.00
2022-11-14T00:56:50.240Z,0.00
2022-11-14T00:57:50.229Z,0.00
2022-11-14T00:58:50.220Z,0.00
2022-11-14T00:59:50.206Z,0.00
2022-11-14T01:00:50.262Z,0.00
2022-11-14T01:01:52.979Z,0.00
2022-11-14T01:02:50.173Z,0.00
2022-11-14T01:03:50.165Z,0.00
2022-11-14T01:04:50.149Z,0.00
2022-11-14T01:05:50.136Z,0.00
2022-11-14T01:06:50.249Z,0.00
2022-11-14T01:07:50.117Z,0.00
2022-11-14T01:08:50.172Z,0.00
2022-11-14T01:09:50.089Z,0.00
2022-11-14T01:10:50.084Z,0.00
2022-11-14T01:11:50.066Z,0.00
2022-11-14T01:12:50.053Z,0.00
2022-11-14T01:13:50.043Z,0.00
2022-11-14T01:14:50.033Z,0.00
2022-11-14T01:15:50.024Z,0.00
2022-11-14T01:16:50.007Z,0.00
2022-11-14T01:17:49.996Z,0.00
2022-11-14T01:18:49.984Z,0.00
2022-11-14T01:19:49.977Z,0.00
2022-11-14T01:20:49.964Z,0.00
2022-11-14T01:21:49.951Z,0.00
2022-11-14T01:22:50.062Z,0.00
2022-11-14T01:23:49.928Z,0.00
2022-11-14T01:24:49.919Z,0.00
2022-11-14T01:25:49.906Z,0.00
2022-11-14T01:26:49.895Z,0.00
2022-11-14T01:27:49.884Z,0.00
2022-11-14T01:28:49.880Z,0.00
2022-11-14T01:29:49.862Z,0.00
2022-11-14T01:30:49.849Z,0.00
2022-11-14T01:31:49.836Z,0.00
2022-11-14T01:32:49.828Z,0.00
2022-11-14T01:33:49.815Z,0.00
2022-11-14T01:34:49.806Z,0.00
2022-11-14T01:35:49.795Z,0.00
2022-11-14T01:36:49.794Z,0.00
2022-11-14T01:37:49.771Z,0.00
2022-11-14T01:38:49.878Z,0.00
2022-11-14T01:39:49.849Z,0.00
2022-11-14T01:40:49.734Z,0.00
2022-11-14T01:41:49.726Z,0.00
2022-11-14T01:42:49.716Z,0.00
2022-11-14T01:43:49.708Z,0.00
2022-11-14T01:44:49.691Z,0.00
2022-11-14T01:45:49.676Z,0.00
2022-11-14T01:46:49.668Z,0.00
2022-11-14T01:47:49.653Z,0.00
2022-11-14T01:48:49.641Z,0.00
2022-11-14T01:49:49.633Z,0.00
2022-11-14T01:50:49.617Z,0.00
2022-11-14T01:51:49.604Z,0.00
2022-11-14T01:52:49.598Z,0.00
2022-11-14T01:53:49.582Z,0.00
2022-11-14T01:54:49.700Z,0.00
2022-11-14T01:55:49.560Z,0.00
2022-11-14T01:56:49.550Z,0.00
2022-11-14T01:57:49.535Z,0.00
2022-11-14T01:58:49.523Z,0.00
2022-11-14T01:59:49.512Z,0.00
2022-11-14T02:00:49.506Z,0.00
2022-11-14T02:01:49.541Z,0.00
2022-11-14T02:02:49.477Z,0.00
2022-11-14T02:03:49.466Z,0.00
2022-11-14T02:04:49.454Z,0.00
2022-11-14T02:05:49.441Z,0.00
2022-11-14T02:06:49.449Z,0.00
2022-11-14T02:07:49.424Z,0.00
2022-11-14T02:08:49.411Z,0.00
2022-11-14T02:09:49.408Z,0.00
2022-11-14T02:10:49.499Z,0.00
2022-11-14T02:11:49.382Z,0.00
2022-11-14T02:12:49.362Z,0.00
2022-11-14T02:13:49.350Z,0.00
2022-11-14T02:14:49.338Z,0.00
2022-11-14T02:15:49.328Z,0.00
2022-11-14T02:17:07.586Z,0.00
2022-11-14T02:17:49.304Z,0.00
2022-11-14T02:18:49.294Z,0.00
2022-11-14T02:19:49.280Z,0.00
2022-11-14T02:20:49.279Z,0.00
2022-11-14T02:21:49.272Z,0.00
2022-11-14T02:22:49.248Z,0.00
2022-11-14T02:23:49.238Z,0.00
2022-11-14T02:24:49.231Z,0.00
2022-11-14T02:25:49.211Z,0.00
2022-11-14T02:26:49.325Z,0.00
2022-11-14T02:27:49.190Z,0.00
2022-11-14T02:28:49.179Z,0.00
2022-11-14T02:29:49.171Z,0.00
2022-11-14T02:30:49.163Z,0.00
2022-11-14T02:31:49.145Z,0.00
2022-11-14T02:33:51.123Z,0.00
2022-11-14T02:34:49.117Z,0.00
2022-11-14T02:35:49.106Z,0.00
2022-11-14T02:36:49.092Z,0.00
2022-11-14T02:37:49.082Z,0.00
2022-11-14T02:38:49.081Z,0.00
2022-11-14T02:39:49.059Z,0.00
2022-11-14T02:40:49.049Z,0.00
2022-11-14T02:41:49.041Z,0.00
2022-11-14T02:42:49.145Z,0.00
2022-11-14T02:43:49.019Z,0.00
2022-11-14T02:44:49.003Z,0.00
2022-11-14T02:45:48.994Z,0.00
2022-11-14T02:46:48.984Z,0.00
2022-11-14T02:47:48.975Z,0.00
2022-11-14T02:48:48.956Z,0.00
2022-11-14T02:49:48.955Z,0.00
2022-11-14T02:50:48.937Z,0.00
2022-11-14T02:51:48.931Z,0.00
2022-11-14T02:52:48.911Z,0.00
2022-11-14T02:53:48.904Z,0.00
2022-11-14T02:54:54.175Z,0.00
2022-11-14T02:55:48.882Z,0.00
2022-11-14T02:56:48.870Z,0.00
2022-11-14T02:57:48.854Z,0.00
2022-11-14T02:58:48.962Z,0.00
2022-11-14T02:59:48.839Z,0.00
2022-11-14T03:01:14.093Z,0.00
2022-11-14T03:01:48.860Z,0.00
2022-11-14T03:02:48.805Z,0.00
2022-11-14T03:03:48.788Z,0.00
2022-11-14T03:04:48.775Z,0.00
2022-11-14T03:05:48.766Z,0.00
2022-11-14T03:06:48.804Z,0.00
2022-11-14T03:07:48.751Z,0.00
2022-11-14T03:08:48.732Z,0.00
2022-11-14T03:09:48.721Z,0.00
2022-11-14T03:10:48.708Z,0.00
2022-11-14T03:11:48.698Z,0.00
2022-11-14T03:12:48.686Z,0.00
2022-11-14T03:13:48.687Z,0.00
2022-11-14T03:14:48.781Z,0.00
2022-11-14T03:15:48.653Z,0.00
2022-11-14T03:16:48.645Z,0.00
2022-11-14T03:17:48.636Z,0.00
2022-11-14T03:18:48.626Z,0.00
2022-11-14T03:19:48.615Z,0.00
2022-11-14T03:20:48.598Z,0.00
2022-11-14T03:21:48.589Z,0.00
2022-11-14T03:22:48.578Z,0.00
2022-11-14T03:23:48.567Z,0.00
2022-11-14T03:24:48.551Z,0.00
2022-11-14T03:25:48.548Z,0.00
2022-11-14T03:26:48.530Z,0.00
2022-11-14T03:27:48.520Z,0.00
2022-11-14T03:28:48.507Z,0.00
2022-11-14T03:29:48.504Z,0.00
2022-11-14T03:30:48.617Z,0.00
2022-11-14T03:31:48.473Z,0.00
2022-11-14T03:32:48.470Z,0.00
2022-11-14T03:33:48.455Z,0.00
2022-11-14T03:34:48.439Z,0.00
2022-11-14T03:35:48.433Z,0.00
2022-11-14T03:36:48.424Z,0.00
2022-11-14T03:37:49.560Z,0.00
2022-11-14T03:38:48.399Z,0.00
2022-11-14T03:39:48.393Z,0.00
2022-11-14T03:40:48.376Z,0.00
2022-11-14T03:41:48.371Z,0.00
2022-11-14T03:42:48.354Z,0.00
2022-11-14T03:43:48.340Z,0.00
2022-11-14T03:44:48.330Z,0.00
2022-11-14T03:45:48.318Z,0.00
2022-11-14T03:46:48.428Z,0.00
2022-11-14T03:47:48.295Z,0.00
2022-11-14T03:48:48.282Z,0.00
2022-11-14T03:49:48.280Z,0.00
2022-11-14T03:50:48.259Z,0.00
2022-11-14T03:51:48.247Z,0.00
2022-11-14T03:52:48.238Z,0.00
2022-11-14T03:53:48.224Z,0.00
2022-11-14T03:54:48.214Z,0.00
2022-11-14T03:55:48.206Z,0.00
2022-11-14T03:56:48.197Z,0.00
2022-11-14T03:57:48.180Z,0.00
2022-11-14T03:58:48.170Z,0.00
2022-11-14T03:59:48.157Z,0.00
2022-11-14T04:00:48.204Z,0.00
2022-11-14T04:01:48.134Z,0.00
2022-11-14T04:02:48.273Z,0.00
2022-11-14T04:03:48.109Z,0.00
2022-11-14T04:04:48.100Z,0.00
2022-11-14T04:05:48.087Z,0.00
2022-11-14T04:06:48.113Z,0.00
2022-11-14T04:07:48.063Z,0.00
2022-11-14T04:08:48.051Z,0.00
2022-11-14T04:09:48.040Z,0.00
2022-11-14T04:10:48.034Z,0.00
2022-11-14T04:11:48.016Z,0.00
2022-11-14T04:12:48.007Z,0.00
2022-11-14T04:13:47.993Z,0.00
2022-11-14T04:14:47.990Z,0.00
2022-11-14T04:15:47.973Z,0.00
2022-11-14T04:16:47.961Z,0.00
2022-11-14T04:17:47.953Z,0.00
2022-11-14T04:18:48.055Z,0.00
2022-11-14T04:19:47.927Z,0.00
2022-11-14T04:20:47.913Z,0.00
2022-11-14T04:21:47.903Z,0.00
2022-11-14T04:22:47.896Z,0.00
2022-11-14T04:23:47.878Z,0.00
2022-11-14T04:24:47.870Z,0.00
2022-11-14T04:25:47.858Z,0.00
2022-11-14T04:26:47.856Z,0.00
2022-11-14T04:27:47.841Z,0.00
2022-11-14T04:28:47.820Z,0.00
2022-11-14T04:29:47.810Z,0.00
2022-11-14T04:30:47.796Z,0.00
2022-11-14T04:31:47.999Z,0.00
2022-11-14T04:32:47.772Z,0.00
2022-11-14T04:33:47.765Z,0.00
2022-11-14T04:34:47.867Z,0.00
2022-11-14T04:35:47.741Z,0.00
2022-11-14T04:36:47.738Z,0.00
2022-11-14T04:37:47.724Z,0.00
2022-11-14T04:38:47.705Z,0.00
2022-11-14T04:39:47.694Z,0.00
2022-11-14T04:40:47.694Z,0.00
2022-11-14T04:41:47.678Z,0.00
2022-11-14T04:42:47.661Z,0.00
2022-11-14T04:43:50.798Z,0.00
2022-11-14T04:44:47.669Z,0.00
2022-11-14T04:45:47.629Z,0.00
2022-11-14T04:46:47.617Z,0.00
2022-11-14T04:47:47.603Z,0.00
2022-11-14T04:48:47.604Z,0.00
2022-11-14T04:49:47.584Z,0.00
2022-11-14T04:50:47.687Z,0.00
2022-11-14T04:51:47.559Z,0.00
2022-11-14T04:52:47.548Z,0.00
2022-11-14T04:53:47.539Z,0.00
2022-11-14T04:54:47.525Z,0.00
2022-11-14T04:55:47.520Z,0.00
2022-11-14T04:56:47.504Z,0.00
2022-11-14T04:57:47.497Z,0.00
2022-11-14T04:58:47.489Z,0.00
2022-11-14T04:59:47.469Z,0.00
2022-11-14T05:00:47.458Z,0.00
2022-11-14T05:01:47.556Z,0.00
2022-11-14T05:02:47.439Z,0.00
2022-11-14T05:03:47.424Z,0.00
2022-11-14T05:04:47.419Z,0.00
2022-11-14T05:05:47.400Z,0.00
2022-11-14T05:06:47.503Z,0.00
2022-11-14T05:07:47.380Z,0.00
2022-11-14T05:08:47.367Z,0.00
2022-11-14T05:09:47.362Z,0.00
2022-11-14T05:10:47.343Z,0.00
2022-11-14T05:11:47.343Z,0.00
2022-11-14T05:12:47.344Z,0.00
2022-11-14T05:13:47.350Z,0.00
2022-11-14T05:14:47.298Z,0.00
2022-11-14T05:15:47.288Z,0.00
2022-11-14T05:16:47.280Z,0.00
2022-11-14T05:17:47.268Z,0.00
2022-11-14T05:18:47.324Z,0.00
2022-11-14T05:19:47.246Z,0.00
2022-11-14T05:20:47.232Z,0.00
2022-11-14T05:21:47.221Z,0.00
2022-11-14T05:22:47.229Z,0.00
2022-11-14T05:23:47.200Z,0.00
2022-11-14T05:24:47.186Z,0.00
2022-11-14T05:25:47.174Z,0.00
2022-11-14T05:26:47.165Z,0.00
2022-11-14T05:27:47.161Z,0.00
2022-11-14T05:28:47.141Z,0.00
2022-11-14T05:29:47.133Z,0.00
2022-11-14T05:30:47.119Z,0.00
2022-11-14T05:31:47.110Z,0.00
2022-11-14T05:32:47.104Z,0.00
2022-11-14T05:33:47.094Z,0.00
2022-11-14T05:34:47.073Z,0.00
2022-11-14T05:35:47.064Z,0.00
2022-11-14T05:36:47.053Z,0.00
2022-11-14T05:37:47.040Z,0.00
2022-11-14T05:38:47.053Z,0.00
2022-11-14T05:39:47.018Z,0.00
2022-11-14T05:40:47.006Z,0.00
2022-11-14T05:41:46.996Z,0.00
2022-11-14T05:42:46.986Z,0.00
2022-11-14T05:43:46.973Z,0.00
2022-11-14T05:44:46.961Z,0.00
2022-11-14T05:45:46.953Z,0.00
2022-11-14T05:46:46.944Z,0.00
2022-11-14T05:47:46.928Z,0.00
2022-11-14T05:48:46.915Z,0.00
2022-11-14T05:49:46.907Z,0.00
2022-11-14T05:50:46.896Z,0.00
2022-11-14T05:51:46.882Z,0.00
2022-11-14T05:52:46.874Z,0.00
2022-11-14T05:53:46.864Z,0.00
2022-11-14T05:54:46.875Z,0.00
2022-11-14T05:55:46.846Z,0.00
2022-11-14T05:56:46.830Z,0.00
2022-11-14T05:57:46.812Z,4.00
2022-11-14T05:58:46.802Z,4.00
2022-11-14T05:59:46.790Z,4.00
2022-11-14T06:00:53.501Z,0.00
2022-11-14T06:01:46.799Z,4.00
2022-11-14T06:02:46.759Z,4.00
2022-11-14T06:03:46.753Z,4.00
2022-11-14T06:04:46.741Z,4.00
2022-11-14T06:05:46.723Z,4.00
2022-11-14T06:06:48.773Z,4.00
2022-11-14T06:07:46.703Z,4.00
2022-11-14T06:08:48.695Z,4.00
2022-11-14T06:09:46.681Z,8.00
2022-11-14T06:10:46.692Z,8.00
2022-11-14T06:11:46.658Z,8.00
2022-11-14T06:12:46.654Z,12.00
2022-11-14T06:13:46.635Z,12.00
2022-11-14T06:14:48.624Z,16.00
2022-11-14T06:15:46.616Z,12.00
2022-11-14T06:16:46.609Z,16.00
2022-11-14T06:17:46.590Z,16.00
2022-11-14T06:18:46.584Z,20.00
2022-11-14T06:19:46.572Z,20.00
2022-11-14T06:20:46.559Z,24.00
2022-11-14T06:21:46.553Z,32.00
2022-11-14T06:22:46.538Z,32.00
2022-11-14T06:23:46.526Z,36.00
2022-11-14T06:24:46.513Z,40.00
2022-11-14T06:25:46.509Z,40.00
2022-11-14T06:26:48.517Z,48.00
2022-11-14T06:27:46.486Z,52.00
2022-11-14T06:28:46.480Z,56.00
2022-11-14T06:29:46.459Z,68.00
2022-11-14T06:30:46.455Z,72.00
2022-11-14T06:31:46.438Z,76.00
2022-11-14T06:32:46.427Z,80.00
2022-11-14T06:33:48.431Z,80.00
2022-11-14T06:34:46.404Z,88.00
2022-11-14T06:35:46.395Z,92.00
2022-11-14T06:36:46.383Z,100.00
2022-11-14T06:37:48.371Z,116.00
2022-11-14T06:38:48.364Z,112.00
2022-11-14T06:39:48.349Z,112.00
2022-11-14T06:40:48.344Z,120.00
2022-11-14T06:41:46.325Z,132.00
2022-11-14T06:42:48.341Z,132.00
2022-11-14T06:43:46.313Z,140.00
2022-11-14T06:44:46.297Z,148.00
2022-11-14T06:45:46.290Z,156.00
2022-11-14T06:46:46.272Z,164.00
2022-11-14T06:47:46.271Z,160.00
2022-11-14T06:48:46.250Z,156.00
2022-11-14T06:49:46.244Z,168.00
2022-11-14T06:50:46.228Z,184.00
2022-11-14T06:51:46.224Z,200.00
2022-11-14T06:52:46.205Z,220.00
2022-11-14T06:53:46.194Z,240.00
2022-11-14T06:54:46.186Z,232.00
2022-11-14T06:55:46.171Z,224.00
2022-11-14T06:56:46.162Z,212.00
2022-11-14T06:57:46.150Z,268.00
2022-11-14T06:58:46.177Z,292.00
2022-11-14T06:59:46.130Z,324.00
2022-11-14T07:00:46.118Z,336.00
2022-11-14T07:01:46.106Z,336.00
2022-11-14T07:02:46.153Z,376.00
2022-11-14T07:03:46.085Z,356.00
2022-11-14T07:04:46.077Z,328.00
2022-11-14T07:05:46.070Z,328.00
2022-11-14T07:06:46.129Z,340.00
2022-11-14T07:07:46.041Z,292.00
2022-11-14T07:08:46.032Z,312.00
2022-11-14T07:09:46.019Z,288.00
2022-11-14T07:10:46.009Z,368.00
2022-11-14T07:11:45.997Z,336.00
2022-11-14T07:12:45.992Z,392.00
2022-11-14T07:13:45.975Z,524.00
2022-11-14T07:14:45.988Z,500.00
2022-11-14T07:15:45.954Z,548.00
2022-11-14T07:16:45.947Z,524.00
2022-11-14T07:17:45.932Z,648.00
2022-11-14T07:18:45.929Z,624.00
2022-11-14T07:19:45.916Z,552.00
2022-11-14T07:20:45.991Z,644.00
2022-11-14T07:21:45.893Z,600.00
2022-11-14T07:22:45.875Z,508.00
2022-11-14T07:23:45.866Z,448.00
2022-11-14T07:24:45.854Z,580.00
2022-11-14T07:25:45.850Z,604.00
2022-11-14T07:26:45.834Z,624.00
2022-11-14T07:27:45.823Z,612.00
2022-11-14T07:28:48.181Z,708.00
2022-11-14T07:29:45.800Z,896.00
2022-11-14T07:30:45.887Z,924.00
2022-11-14T07:31:45.779Z,936.00
2022-11-14T07:32:45.766Z,1068.00
2022-11-14T07:33:45.757Z,1036.00
2022-11-14T07:34:45.747Z,1060.00
2022-11-14T07:35:45.734Z,1044.00
2022-11-14T07:36:45.729Z,1016.00
2022-11-14T07:37:45.712Z,1016.00
2022-11-14T07:38:45.701Z,1052.00
2022-11-14T07:39:45.691Z,1140.00
2022-11-14T07:40:45.686Z,1236.00
2022-11-14T07:41:45.695Z,1128.00
2022-11-14T07:42:45.661Z,1156.00
2022-11-14T07:43:45.647Z,1240.00
2022-11-14T07:44:45.638Z,1376.00
2022-11-14T07:45:45.622Z,1364.00
2022-11-14T07:46:45.638Z,1504.00
2022-11-14T07:47:45.600Z,1392.00
2022-11-14T07:48:45.589Z,1284.00
2022-11-14T07:49:45.579Z,1464.00
2022-11-14T07:50:45.567Z,1340.00
2022-11-14T07:51:45.555Z,1408.00
2022-11-14T07:52:45.543Z,1368.00
2022-11-14T07:53:45.532Z,1364.00
2022-11-14T07:54:45.523Z,1472.00
2022-11-14T07:55:45.511Z,1568.00
2022-11-14T07:56:45.502Z,1476.00
2022-11-14T07:57:49.146Z,1768.00
2022-11-14T07:58:45.486Z,1524.00
2022-11-14T07:59:45.466Z,1356.00
2022-11-14T08:00:45.628Z,1268.00
2022-11-14T08:01:45.449Z,1400.00
2022-11-14T08:02:45.461Z,1428.00
2022-11-14T08:03:46.418Z,1368.00
2022-11-14T08:04:45.409Z,1284.00
2022-11-14T08:05:45.402Z,1428.00
2022-11-14T08:06:45.428Z,1436.00
2022-11-14T08:07:45.373Z,1292.00
2022-11-14T08:08:45.361Z,1460.00
2022-11-14T08:09:45.349Z,1608.00
2022-11-14T08:10:45.339Z,1708.00
2022-11-14T08:11:45.333Z,1500.00
2022-11-14T08:12:45.316Z,1568.00
2022-11-14T08:13:45.305Z,1540.00
2022-11-14T08:14:45.385Z,1704.00
2022-11-14T08:15:45.280Z,1648.00
2022-11-14T08:16:45.268Z,1696.00
2022-11-14T08:17:45.258Z,1972.00
2022-11-14T08:18:45.267Z,3008.00
2022-11-14T08:19:45.231Z,2036.00
2022-11-14T08:20:45.221Z,1600.00
2022-11-14T08:21:45.208Z,1948.00
2022-11-14T08:22:45.282Z,2068.00
2022-11-14T08:23:45.196Z,3496.00
2022-11-14T08:24:45.196Z,3432.00
2022-11-14T08:25:45.186Z,2184.00
2022-11-14T08:26:45.170Z,2228.00
2022-11-14T08:27:45.156Z,2144.00
2022-11-14T08:28:45.149Z,3848.00
2022-11-14T08:29:45.155Z,2268.00
2022-11-14T08:30:45.126Z,2720.00
2022-11-14T08:31:45.095Z,2220.00
2022-11-14T08:32:45.087Z,1968.00
2022-11-14T08:33:45.069Z,1796.00
2022-11-14T08:34:45.090Z,1840.00
2022-11-14T08:35:45.074Z,1912.00
2022-11-14T08:36:45.035Z,2324.00
2022-11-14T08:37:45.024Z,1856.00
2022-11-14T08:38:45.020Z,1860.00
2022-11-14T08:39:45.005Z,1700.00
2022-11-14T08:40:44.991Z,1624.00
2022-11-14T08:41:44.979Z,2544.00
2022-11-14T08:42:44.966Z,1596.00
2022-11-14T08:43:44.961Z,2128.00
2022-11-14T08:44:50.780Z,2028.00
2022-11-14T08:45:44.943Z,2444.00
2022-11-14T08:46:44.926Z,2164.00
2022-11-14T08:47:44.939Z,1968.00
2022-11-14T08:48:44.899Z,2260.00
2022-11-14T08:49:44.887Z,1968.00
2022-11-14T08:50:44.904Z,3136.00
2022-11-14T08:51:44.876Z,2392.00
2022-11-14T08:52:44.854Z,3696.00
2022-11-14T08:53:44.843Z,2324.00
2022-11-14T08:54:44.834Z,2744.00
2022-11-14T08:55:44.826Z,2624.00
2022-11-14T08:56:44.815Z,3940.00
2022-11-14T08:57:49.167Z,3852.00
2022-11-14T08:58:44.792Z,4096.00
2022-11-14T08:59:44.781Z,4016.00
2022-11-14T09:00:44.770Z,4200.00
2022-11-14T09:01:44.758Z,3940.00
2022-11-14T09:02:44.851Z,4540.00
2022-11-14T09:03:44.889Z,4692.00
2022-11-14T09:04:44.828Z,4876.00
2022-11-14T09:05:44.707Z,4312.00
2022-11-14T09:06:44.754Z,4628.00
2022-11-14T09:07:44.686Z,4280.00
2022-11-14T09:08:44.725Z,4020.00
2022-11-14T09:09:44.661Z,4288.00
2022-11-14T09:10:44.660Z,4152.00
2022-11-14T09:11:44.644Z,3968.00
2022-11-14T09:12:44.646Z,3956.00
2022-11-14T09:13:44.619Z,3788.00
2022-11-14T09:14:44.612Z,4196.00
2022-11-14T09:15:44.600Z,3216.00
2022-11-14T09:16:44.633Z,3964.00
2022-11-14T09:17:44.580Z,3492.00
2022-11-14T09:18:44.561Z,2340.00
2022-11-14T09:19:44.550Z,3756.00
2022-11-14T09:20:44.542Z,3836.00
2022-11-14T09:21:44.527Z,3216.00
2022-11-14T09:22:44.541Z,3764.00
2022-11-14T09:23:44.506Z,3804.00
2022-11-14T09:24:44.492Z,3696.00
2022-11-14T09:25:44.481Z,3784.00
2022-11-14T09:26:44.470Z,3316.00
2022-11-14T09:27:44.557Z,3668.00
2022-11-14T09:28:44.447Z,3768.00
2022-11-14T09:29:44.435Z,3672.00
2022-11-14T09:30:44.423Z,3752.00
2022-11-14T09:31:44.411Z,3732.00
2022-11-14T09:32:44.402Z,3792.00
2022-11-14T09:33:44.395Z,3792.00
2022-11-14T09:34:44.376Z,3716.00
2022-11-14T09:35:44.368Z,3696.00
2022-11-14T09:36:44.353Z,3848.00
2022-11-14T09:37:44.352Z,3824.00
2022-11-14T09:38:44.367Z,3828.00
2022-11-14T09:39:44.320Z,3872.00
2022-11-14T09:40:44.310Z,3828.00
2022-11-14T09:41:44.302Z,3904.00
2022-11-14T09:42:44.309Z,3804.00
2022-11-14T09:43:44.282Z,3940.00
2022-11-14T09:44:44.265Z,3848.00
2022-11-14T09:45:44.256Z,3844.00
2022-11-14T09:46:44.243Z,3840.00
2022-11-14T09:47:44.236Z,3756.00
2022-11-14T09:48:44.233Z,3780.00
2022-11-14T09:49:44.212Z,3836.00
2022-11-14T09:50:44.200Z,3768.00
2022-11-14T09:51:44.188Z,3696.00
2022-11-14T09:52:44.186Z,3784.00
2022-11-14T09:53:44.168Z,3780.00
2022-11-14T09:54:44.232Z,3752.00
2022-11-14T09:55:44.146Z,3832.00
2022-11-14T09:56:44.153Z,3856.00
2022-11-14T09:57:44.455Z,3788.00
2022-11-14T09:58:44.415Z,3756.00
2022-11-14T09:59:44.113Z,3772.00
2022-11-14T10:00:44.093Z,3800.00
2022-11-14T10:01:44.170Z,3788.00
2022-11-14T10:02:44.066Z,3804.00
2022-11-14T10:03:44.054Z,3792.00
2022-11-14T10:04:44.051Z,3792.00
2022-11-14T10:05:44.030Z,3772.00
2022-11-14T10:06:44.080Z,3780.00
2022-11-14T10:07:44.012Z,3836.00
2022-11-14T10:08:43.999Z,3824.00
2022-11-14T10:09:43.984Z,3816.00
2022-11-14T10:10:43.996Z,3836.00
2022-11-14T10:11:43.960Z,3804.00
2022-11-14T10:12:43.950Z,3824.00
2022-11-14T10:13:43.942Z,3804.00
2022-11-14T10:14:43.927Z,3792.00
2022-11-14T10:15:43.925Z,3836.00
2022-11-14T10:16:43.904Z,3828.00
2022-11-14T10:17:43.891Z,3812.00
2022-11-14T10:18:43.884Z,3804.00
2022-11-14T10:19:43.868Z,3852.00
2022-11-14T10:20:43.863Z,3812.00
2022-11-14T10:21:43.849Z,3740.00
2022-11-14T10:22:43.836Z,3804.00
2022-11-14T10:23:43.829Z,3732.00
2022-11-14T10:24:43.817Z,3720.00
2022-11-14T10:25:44.508Z,3808.00
2022-11-14T10:26:43.819Z,3732.00
2022-11-14T10:27:43.788Z,3712.00
2022-11-14T10:28:43.768Z,3760.00
2022-11-14T10:29:43.773Z,3764.00
2022-11-14T10:30:43.747Z,3784.00
2022-11-14T10:31:43.746Z,3740.00
2022-11-14T10:32:43.728Z,3636.00
2022-11-14T10:33:43.728Z,3704.00
2022-11-14T10:34:43.701Z,3628.00
2022-11-14T10:35:43.694Z,3640.00
2022-11-14T10:36:43.682Z,3636.00
2022-11-14T10:37:43.671Z,3660.00
2022-11-14T10:38:43.658Z,3688.00
2022-11-14T10:39:43.771Z,3736.00
2022-11-14T10:40:43.635Z,3684.00
2022-11-14T10:41:57.131Z,3716.00
2022-11-14T10:42:43.636Z,3708.00
2022-11-14T10:43:43.600Z,3780.00
2022-11-14T10:44:43.591Z,3764.00
2022-11-14T10:45:43.582Z,3744.00
2022-11-14T10:46:43.570Z,3736.00
2022-11-14T10:47:43.560Z,3744.00
2022-11-14T10:48:43.545Z,3728.00
2022-11-14T10:49:43.542Z,3780.00
2022-11-14T10:50:43.522Z,3768.00
2022-11-14T10:51:43.516Z,3740.00
2022-11-14T10:52:43.499Z,3724.00
2022-11-14T10:53:43.488Z,3572.00
2022-11-14T10:54:43.483Z,3488.00
2022-11-14T10:56:03.147Z,3332.00
2022-11-14T10:56:43.460Z,3612.00
2022-11-14T10:57:43.446Z,3708.00
2022-11-14T10:58:48.971Z,3736.00
2022-11-14T10:59:43.422Z,3692.00
2022-11-14T11:00:43.468Z,3664.00
2022-11-14T11:01:43.405Z,3700.00
2022-11-14T11:02:43.388Z,3752.00
2022-11-14T11:03:43.475Z,3788.00
2022-11-14T11:04:43.378Z,3760.00
2022-11-14T11:05:43.352Z,3700.00
2022-11-14T11:06:43.498Z,3692.00
2022-11-14T11:07:43.331Z,3700.00
2022-11-14T11:08:44.573Z,3724.00
2022-11-14T11:09:45.869Z,3684.00
2022-11-14T11:10:43.299Z,3676.00
2022-11-14T11:11:43.287Z,3500.00
2022-11-14T11:12:43.332Z,3080.00
2022-11-14T11:13:43.267Z,2940.00
2022-11-14T11:14:43.278Z,3156.00
2022-11-14T11:15:43.243Z,3616.00
2022-11-14T11:16:43.230Z,3676.00
2022-11-14T11:17:43.267Z,3460.00
2022-11-14T11:18:45.457Z,3368.00
2022-11-14T11:19:43.195Z,3676.00
2022-11-14T11:20:43.183Z,3692.00
2022-11-14T11:21:43.240Z,3668.00
2022-11-14T11:22:43.160Z,3628.00
2022-11-14T11:23:43.147Z,3680.00
2022-11-14T11:24:43.137Z,3656.00
2022-11-14T11:25:43.124Z,3632.00
2022-11-14T11:26:43.117Z,3616.00
2022-11-14T11:27:43.104Z,3616.00
2022-11-14T11:28:43.096Z,3612.00
2022-11-14T11:29:43.078Z,3608.00
2022-11-14T11:30:43.091Z,3540.00
2022-11-14T11:31:43.057Z,3576.00
2022-11-14T11:32:43.043Z,3484.00
2022-11-14T11:33:43.033Z,3516.00
2022-11-14T11:34:43.025Z,3536.00
2022-11-14T11:35:43.015Z,3520.00
2022-11-14T11:36:43.000Z,3512.00
2022-11-14T11:37:42.987Z,3488.00
2022-11-14T11:38:42.978Z,3468.00
2022-11-14T11:39:42.970Z,3464.00
2022-11-14T11:40:42.955Z,3456.00
2022-11-14T11:42:07.605Z,3392.00
2022-11-14T11:43:31.815Z,3408.00
2022-11-14T11:43:42.919Z,3368.00
2022-11-14T11:44:42.908Z,3408.00
2022-11-14T11:45:42.897Z,3332.00
2022-11-14T11:46:42.913Z,3380.00
2022-11-14T11:47:42.880Z,3424.00
2022-11-14T11:48:42.868Z,3312.00
2022-11-14T11:49:42.854Z,3360.00
2022-11-14T11:50:42.844Z,3320.00
2022-11-14T11:51:42.840Z,3324.00
2022-11-14T11:52:42.817Z,3268.00
2022-11-14T11:53:42.807Z,3016.00
2022-11-14T11:54:42.803Z,2820.00
2022-11-14T11:55:42.786Z,2860.00
2022-11-14T11:56:42.773Z,3000.00
2022-11-14T11:57:42.768Z,2680.00
2022-11-14T11:58:42.762Z,1904.00
2022-11-14T11:59:42.749Z,1740.00
2022-11-14T12:00:42.731Z,2324.00
2022-11-14T12:01:42.716Z,3032.00
2022-11-14T12:02:49.268Z,3136.00
2022-11-14T12:03:42.882Z,3052.00
2022-11-14T12:04:42.683Z,3116.00
2022-11-14T12:05:42.672Z,3104.00
2022-11-14T12:06:42.661Z,3088.00
2022-11-14T12:07:42.651Z,3060.00
2022-11-14T12:08:42.640Z,3072.00
2022-11-14T12:10:09.268Z,3032.00
2022-11-14T12:10:42.616Z,2976.00
2022-11-14T12:11:42.605Z,2960.00
2022-11-14T12:12:42.592Z,2896.00
2022-11-14T12:13:42.588Z,2888.00
2022-11-14T12:14:42.573Z,2876.00
2022-11-14T12:15:42.561Z,2816.00
2022-11-14T12:16:42.548Z,2820.00
2022-11-14T12:17:42.568Z,2856.00
2022-11-14T12:18:42.563Z,2840.00
2022-11-14T12:19:42.515Z,2792.00
2022-11-14T12:20:42.506Z,2800.00
2022-11-14T12:21:42.492Z,2788.00
2022-11-14T12:22:42.706Z,2796.00
2022-11-14T12:23:42.469Z,2752.00
2022-11-14T12:24:42.459Z,2728.00
2022-11-14T12:25:42.455Z,2700.00
2022-11-14T12:26:42.436Z,2716.00
2022-11-14T12:27:42.474Z,2708.00
2022-11-14T12:28:42.419Z,2728.00
2022-11-14T12:29:42.401Z,2724.00
2022-11-14T12:30:42.404Z,2728.00
2022-11-14T12:31:42.377Z,2676.00
2022-11-14T12:32:42.370Z,2708.00
2022-11-14T12:33:42.358Z,2744.00
2022-11-14T12:34:42.368Z,2708.00
2022-11-14T12:35:42.340Z,2656.00
2022-11-14T12:36:42.323Z,2676.00
2022-11-14T12:37:42.397Z,3028.00
2022-11-14T12:38:42.299Z,3240.00
2022-11-14T12:39:42.293Z,3292.00
2022-11-14T12:40:42.277Z,3344.00
2022-11-14T12:41:42.263Z,3336.00
2022-11-14T12:42:42.255Z,3260.00
2022-11-14T12:43:42.787Z,3220.00